Time;durP1;ratioP1;P1;durP2;ratioP2;P2;SDS_P1;SDS_P2;PMS_P1;PMS_P2;Temp;Humidity;BMP_temperature;BMP_pressure;BME280_temperature;BME280_humidity;BME280_pressure;Samples;Min_cycle;Max_cycle;Signal;HPM_P1;HPM_P2
2023/02/14 00:01:19;;;;;;;3.33;3.03;;;20.40;73.40;;;;;;5087581;28;20190;-61
2023/02/14 00:03:46;;;;;;;4.15;3.40;;;20.40;73.40;;;;;;5085678;28;20573;-62
2023/02/14 00:06:13;;;;;;;3.95;3.55;;;20.40;73.40;;;;;;5083412;28;20202;-62
2023/02/14 00:08:43;;;;;;;5.25;4.38;;;20.30;73.30;;;;;;5086564;28;20223;-62
2023/02/14 00:11:10;;;;;;;5.05;4.50;;;20.30;73.30;;;;;;5097682;28;20189;-62
2023/02/14 00:13:37;;;;;;;5.10;3.75;;;20.40;73.40;;;;;;5087545;28;20202;-62
2023/02/14 00:16:04;;;;;;;4.07;3.45;;;20.40;73.40;;;;;;5081876;28;20197;-62
2023/02/14 00:21:11;;;;;;;3.83;3.45;;;20.40;73.40;;;;;;5090350;28;20218;-62
2023/02/14 00:23:38;;;;;;;5.00;3.40;;;20.40;73.40;;;;;;5091366;28;20213;-63
2023/02/14 00:26:05;;;;;;;3.90;3.60;;;20.40;73.30;;;;;;5078415;28;20240;-63
2023/02/14 00:28:31;;;;;;;4.78;3.17;;;20.30;73.20;;;;;;5093068;28;20210;-62
2023/02/14 00:31:01;;;;;;;4.28;3.45;;;20.30;73.20;;;;;;5091230;28;20197;-63
2023/02/14 00:33:29;;;;;;;3.88;3.58;;;20.30;73.20;;;;;;5086184;28;20190;-62
2023/02/14 00:35:56;;;;;;;3.92;3.35;;;20.30;73.20;;;;;;5090084;28;20190;-63
2023/02/14 00:38:22;;;;;;;3.60;3.30;;;20.30;73.20;;;;;;5075879;28;20655;-62
2023/02/14 00:40:49;;;;;;;3.97;3.53;;;20.30;73.20;;;;;;5087995;28;20198;-62
2023/02/14 00:43:15;;;;;;;4.05;3.20;;;20.30;74.00;;;;;;5091720;28;20190;-62
2023/02/14 00:45:42;;;;;;;3.72;3.25;;;20.30;73.20;;;;;;5084826;28;20202;-62
2023/02/14 00:48:09;;;;;;;3.58;3.13;;;20.30;73.10;;;;;;5084291;28;20221;-63
2023/02/14 00:50:37;;;;;;;3.90;3.47;;;20.30;73.10;;;;;;5089404;28;20306;-63
2023/02/14 00:53:04;;;;;;;4.05;3.63;;;20.30;73.10;;;;;;5083082;28;20194;-62
2023/02/14 00:55:30;;;;;;;3.72;3.00;;;20.30;73.20;;;;;;5081551;28;20268;-63
2023/02/14 00:57:57;;;;;;;4.05;3.65;;;20.30;73.10;;;;;;5089267;28;20607;-62
2023/02/14 01:00:24;;;;;;;3.70;3.00;;;20.30;73.20;;;;;;5087139;28;20202;-61
2023/02/14 01:02:51;;;;;;;3.88;3.28;;;20.30;73.10;;;;;;5084289;28;20249;-62
2023/02/14 01:05:17;;;;;;;3.55;3.25;;;20.20;73.10;;;;;;5083955;28;20725;-61
2023/02/14 01:07:45;;;;;;;3.38;3.05;;;20.30;73.20;;;;;;5084828;28;20606;-62
2023/02/14 01:10:12;;;;;;;3.03;2.70;;;20.20;73.00;;;;;;5075511;28;20244;-62
2023/02/14 01:12:39;;;;;;;3.50;3.20;;;20.30;73.10;;;;;;5083799;28;20195;-62
2023/02/14 01:15:06;;;;;;;4.65;3.55;;;20.30;73.10;;;;;;5080053;28;20252;-62
2023/02/14 01:17:33;;;;;;;2.63;2.42;;;20.30;73.10;;;;;;5079250;28;20199;-62
2023/02/14 01:20:00;;;;;;;4.50;3.60;;;20.20;73.00;;;;;;5078198;28;20194;-62
2023/02/14 01:22:26;;;;;;;3.22;3.03;;;20.20;73.00;;;;;;5090134;28;20765;-62
2023/02/14 01:24:54;;;;;;;3.97;2.75;;;20.20;73.00;;;;;;5086823;28;20259;-62
2023/02/14 01:27:21;;;;;;;3.50;3.20;;;20.20;73.00;;;;;;5071990;28;20203;-63
2023/02/14 01:29:48;;;;;;;2.42;2.22;;;20.20;73.00;;;;;;5081549;28;20194;-62
2023/02/14 01:32:14;;;;;;;3.58;3.20;;;20.20;73.00;;;;;;5072512;28;20202;-62
2023/02/14 01:34:41;;;;;;;5.20;3.75;;;20.20;73.00;;;;;;5076294;28;20210;-63
2023/02/14 01:37:08;;;;;;;3.65;3.33;;;20.20;73.00;;;;;;5076912;28;20190;-62
2023/02/14 01:39:34;;;;;;;3.22;2.92;;;20.20;73.00;;;;;;5077459;28;20198;-63
2023/02/14 01:42:02;;;;;;;3.45;3.15;;;20.20;73.00;;;;;;5076202;28;20197;-62
2023/02/14 01:44:56;;;;;;;5.03;3.90;;;20.20;72.90;;;;;;5082368;28;20187;-63
2023/02/14 01:47:25;;;;;;;3.50;3.20;;;20.20;73.00;;;;;;5071070;28;20198;-63
2023/02/14 01:49:55;;;;;;;3.65;3.30;;;20.20;73.00;;;;;;5074564;28;20679;-63
2023/02/14 01:52:25;;;;;;;2.67;2.45;;;20.20;73.00;;;;;;5082874;28;20584;-63
2023/02/14 01:54:55;;;;;;;3.00;2.75;;;20.10;72.90;;;;;;5084308;28;20578;-63
2023/02/14 01:57:28;;;;;;;3.20;2.90;;;20.10;72.80;;;;;;5080073;28;20197;-62
2023/02/14 02:00:55;;;;;;;3.95;2.53;;;20.20;73.00;;;;;;5073268;28;20553;-62
2023/02/14 02:02:47;;;;;;;3.17;2.88;;;20.20;73.70;;;;;;5084635;28;20310;-62
2023/02/14 02:05:15;;;;;;;3.20;2.90;;;20.20;73.00;;;;;;5089013;28;20190;-62
2023/02/14 02:07:42;;;;;;;2.78;2.58;;;20.10;72.90;;;;;;5083785;28;20222;-63
2023/02/14 02:10:10;;;;;;;3.60;3.30;;;20.10;72.80;;;;;;5074979;28;20194;-63
2023/02/14 02:12:38;;;;;;;3.40;3.10;;;20.10;72.80;;;;;;5087675;28;20288;-63
2023/02/14 02:15:06;;;;;;;3.75;3.45;;;20.10;72.80;;;;;;5079388;28;20193;-63
2023/02/14 02:17:45;;;;;;;3.13;2.80;;;20.10;72.80;;;;;;5080146;28;20191;-63
2023/02/14 02:20:48;;;;;;;2.97;2.75;;;20.10;72.80;;;;;;5082843;28;20193;-63
2023/02/14 02:23:50;;;;;;;2.80;2.60;;;20.10;72.80;;;;;;5057416;28;20222;-64
2023/02/14 02:26:53;;;;;;;3.08;2.78;;;20.20;72.90;;;;;;5078942;28;20694;-62
2023/02/14 02:30:13;;;;;;;3.25;2.95;;;20.10;72.80;;;;;;5056063;28;20210;-62
2023/02/14 02:33:12;;;;;;;3.30;2.40;;;20.10;73.50;;;;;;5049243;28;20191;-63
2023/02/14 02:35:56;;;;;;;3.10;2.80;;;20.10;72.80;;;;;;5053113;28;20215;-63
2023/02/14 02:38:40;;;;;;;3.30;3.00;;;20.10;72.70;;;;;;5077982;28;20205;-62
2023/02/14 02:41:17;;;;;;;3.38;3.08;;;20.10;72.70;;;;;;5076825;28;20194;-61
2023/02/14 02:43:53;;;;;;;3.08;2.60;;;20.10;72.70;;;;;;5078258;28;20201;-62
2023/02/14 02:53:01;;;;;;;3.33;3.03;;;20.10;72.60;;;;;;5080133;28;20228;-62
2023/02/14 02:54:55;;;;;;;4.05;3.40;;;20.10;72.70;;;;;;5084035;28;20201;-62
2023/02/14 02:57:27;;;;;;;2.72;2.53;;;20.10;72.60;;;;;;5089949;28;20194;-62
2023/02/14 02:59:56;;;;;;;3.28;2.55;;;20.10;73.40;;;;;;5085287;28;20194;-63
2023/02/14 03:02:25;;;;;;;2.75;2.53;;;20.10;72.60;;;;;;5079621;28;20214;-62
2023/02/14 03:04:55;;;;;;;2.55;2.35;;;20.10;72.60;;;;;;5081624;28;20215;-62
2023/02/14 03:07:35;;;;;;;3.03;2.70;;;20.10;72.60;;;;;;5078344;28;20201;-62
2023/02/14 03:10:05;;;;;;;3.10;2.80;;;20.10;72.60;;;;;;5081760;28;20233;-63
2023/02/14 03:12:57;;;;;;;2.83;2.60;;;20.10;72.60;;;;;;5087162;28;20226;-62
2023/02/14 03:15:44;;;;;;;3.20;2.90;;;20.10;72.50;;;;;;5080344;28;21344;-63
2023/02/14 03:21:14;;;;;;;2.78;2.58;;;20.10;73.30;;;;;;5083251;28;20205;-63
2023/02/14 03:23:51;;;;;;;2.45;2.25;;;20.10;72.50;;;;;;5078655;28;20205;-60
2023/02/14 03:26:21;;;;;;;3.15;2.85;;;20.10;72.50;;;;;;5083020;28;20201;-62
2023/02/14 03:28:57;;;;;;;4.28;2.80;;;20.10;72.40;;;;;;5087731;28;20214;-61
2023/02/14 03:31:30;;;;;;;2.70;1.98;;;20.10;72.40;;;;;;5087676;28;20200;-60
2023/02/14 03:34:00;;;;;;;3.13;2.88;;;20.10;72.50;;;;;;5078745;28;20194;-61
2023/02/14 03:36:31;;;;;;;2.58;2.22;;;20.10;72.40;;;;;;5086479;28;20194;-62
2023/02/14 03:39:06;;;;;;;3.17;2.85;;;20.10;72.40;;;;;;5077460;28;20251;-62
2023/02/14 03:41:38;;;;;;;2.75;2.50;;;20.00;72.30;;;;;;5078096;28;20571;-62
2023/02/14 03:44:09;;;;;;;3.35;2.83;;;20.00;72.30;;;;;;5079215;28;20427;-63
2023/02/14 03:46:39;;;;;;;3.75;2.50;;;20.00;72.20;;;;;;5082487;28;20198;-62
2023/02/14 03:49:11;;;;;;;2.38;2.17;;;20.00;72.20;;;;;;5072356;28;20699;-62
2023/02/14 03:51:38;;;;;;;2.78;2.30;;;20.00;72.20;;;;;;5074998;28;20651;-62
2023/02/14 03:54:10;;;;;;;2.53;2.33;;;20.00;72.20;;;;;;5079321;28;20201;-62
2023/02/14 03:56:39;;;;;;;3.40;2.20;;;20.00;72.20;;;;;;5077159;28;20199;-62
2023/02/14 03:59:11;;;;;;;3.55;3.25;;;20.00;72.20;;;;;;5086501;28;20679;-63
2023/02/14 04:01:43;;;;;;;1.92;1.83;;;20.00;72.20;;;;;;5070974;28;20207;-62
2023/02/14 04:04:11;;;;;;;2.70;2.45;;;20.00;72.10;;;;;;5085486;28;20642;-62
2023/02/14 04:06:38;;;;;;;2.35;2.15;;;20.00;72.10;;;;;;5084957;28;20198;-64
2023/02/14 04:09:06;;;;;;;3.50;2.95;;;20.00;72.10;;;;;;5089739;28;20251;-62
2023/02/14 04:11:34;;;;;;;2.85;2.30;;;20.00;72.10;;;;;;5094531;28;20585;-60
2023/02/14 04:14:01;;;;;;;2.60;2.22;;;20.00;72.00;;;;;;5086868;28;20202;-63
2023/02/14 04:16:28;;;;;;;3.22;2.38;;;20.00;72.10;;;;;;5083291;28;20201;-62
2023/02/14 04:21:38;;;;;;;2.45;2.00;;;20.00;72.10;;;;;;5091328;28;20593;-62
2023/02/14 04:24:07;;;;;;;3.63;2.53;;;20.00;72.10;;;;;;5086389;28;20194;-63
2023/02/14 04:26:34;;;;;;;2.22;2.03;;;20.00;72.00;;;;;;5085687;28;20202;-63
2023/02/14 04:29:00;;;;;;;2.58;2.20;;;20.00;72.00;;;;;;5081440;28;20221;-63
2023/02/14 04:31:27;;;;;;;2.80;2.20;;;20.00;72.00;;;;;;5081830;28;20198;-64
2023/02/14 04:33:54;;;;;;;2.50;2.30;;;20.00;72.00;;;;;;5085246;28;20198;-63
2023/02/14 04:36:20;;;;;;;3.03;2.25;;;20.00;71.90;;;;;;5080804;28;20197;-63
2023/02/14 04:38:47;;;;;;;3.70;2.20;;;20.00;72.70;;;;;;5082954;28;20214;-62
2023/02/14 04:41:16;;;;;;;2.50;1.95;;;20.00;71.90;;;;;;5089655;28;20704;-61
2023/02/14 04:43:42;;;;;;;2.78;2.58;;;20.00;71.80;;;;;;5075076;28;20207;-62
2023/02/14 04:46:09;;;;;;;2.95;2.33;;;20.00;71.80;;;;;;5088162;28;20218;-63
2023/02/14 04:48:36;;;;;;;2.25;2.05;;;20.00;71.80;;;;;;5085058;28;20226;-62
2023/02/14 04:51:02;;;;;;;2.75;2.55;;;20.00;71.80;;;;;;5072256;28;20396;-61
2023/02/14 04:53:29;;;;;;;2.85;2.40;;;20.00;71.80;;;;;;5075272;28;20194;-61
2023/02/14 04:55:56;;;;;;;3.35;2.45;;;20.00;71.80;;;;;;5090344;28;20202;-62
2023/02/14 04:58:24;;;;;;;2.50;2.30;;;20.00;71.80;;;;;;5089890;28;20194;-62
2023/02/14 05:00:50;;;;;;;2.42;2.22;;;20.00;71.80;;;;;;5085136;28;20577;-63
2023/02/14 05:03:17;;;;;;;2.33;2.13;;;19.90;71.70;;;;;;5089446;28;20197;-62
2023/02/14 05:05:44;;;;;;;2.45;2.25;;;19.90;71.70;;;;;;5075511;28;20688;-63
2023/02/14 05:08:10;;;;;;;2.22;2.03;;;20.00;71.80;;;;;;5079106;28;20603;-62
2023/02/14 05:10:37;;;;;;;2.22;2.03;;;19.90;71.60;;;;;;5083813;28;20283;-63
2023/02/14 05:13:04;;;;;;;2.08;1.88;;;20.00;71.70;;;;;;5088413;28;20195;-62
2023/02/14 05:15:32;;;;;;;2.20;2.00;;;20.00;71.70;;;;;;5080914;28;20558;-62
2023/02/14 05:18:01;;;;;;;2.83;2.22;;;20.00;71.70;;;;;;5081982;28;20198;-62
2023/02/14 05:20:28;;;;;;;2.38;2.15;;;20.00;71.70;;;;;;5083353;28;20202;-62
2023/02/14 05:22:55;;;;;;;2.40;2.20;;;20.00;71.70;;;;;;5090249;28;20723;-64
2023/02/14 05:25:22;;;;;;;2.47;2.28;;;20.00;72.50;;;;;;5082467;28;20202;-62
2023/02/14 05:27:48;;;;;;;2.03;1.88;;;20.00;71.70;;;;;;5090411;28;20198;-62
2023/02/14 05:30:15;;;;;;;2.55;2.35;;;19.90;71.50;;;;;;5082651;28;20214;-63
2023/02/14 05:32:43;;;;;;;2.60;2.40;;;19.90;71.50;;;;;;5085706;28;20650;-62
2023/02/14 05:35:10;;;;;;;2.55;2.35;;;19.90;71.50;;;;;;5089212;28;20194;-62
2023/02/14 05:37:37;;;;;;;2.78;2.58;;;19.90;71.50;;;;;;5077997;28;20194;-63
2023/02/14 05:40:06;;;;;;;2.10;1.88;;;19.90;71.50;;;;;;5078505;28;20600;-61
2023/02/14 05:42:32;;;;;;;2.00;1.80;;;19.90;71.50;;;;;;5083613;28;20206;-60
2023/02/14 05:44:59;;;;;;;2.08;1.88;;;19.90;71.50;;;;;;5082746;28;20201;-62
2023/02/14 05:47:26;;;;;;;3.00;2.75;;;19.90;71.50;;;;;;5082243;28;20194;-61
2023/02/14 05:49:54;;;;;;;2.40;2.00;;;19.90;71.50;;;;;;5081259;28;20225;-61
2023/02/14 05:52:20;;;;;;;2.50;2.30;;;19.90;71.50;;;;;;5080483;28;20195;-62
2023/02/14 05:54:47;;;;;;;2.15;1.95;;;19.90;71.50;;;;;;5078175;28;20191;-60
2023/02/14 05:57:14;;;;;;;1.92;1.77;;;19.90;71.50;;;;;;5084620;28;20588;-62
2023/02/14 05:59:40;;;;;;;2.10;1.90;;;19.90;71.40;;;;;;5081872;28;20201;-61
2023/02/14 06:02:07;;;;;;;1.90;1.70;;;19.90;71.40;;;;;;5081085;28;20190;-62
2023/02/14 06:04:34;;;;;;;2.80;1.90;;;19.90;71.50;;;;;;5081557;28;20206;-62
2023/02/14 06:07:02;;;;;;;2.40;2.20;;;19.90;71.40;;;;;;5086920;28;20194;-62
2023/02/14 06:09:29;;;;;;;2.05;1.85;;;19.90;71.50;;;;;;5082840;28;20564;-63
2023/02/14 06:11:55;;;;;;;2.17;1.98;;;19.90;71.40;;;;;;5077966;28;20190;-63
2023/02/14 06:14:22;;;;;;;2.03;1.85;;;19.90;71.50;;;;;;5085545;28;20198;-63
2023/02/14 06:16:49;;;;;;;2.47;2.28;;;19.90;71.50;;;;;;5080667;28;20642;-62
2023/02/14 06:19:15;;;;;;;2.13;1.92;;;19.90;71.50;;;;;;5076154;28;20201;-63
2023/02/14 06:21:42;;;;;;;2.15;1.95;;;19.90;71.50;;;;;;5082932;28;20222;-63
2023/02/14 06:24:10;;;;;;;2.90;1.77;;;19.90;71.50;;;;;;5089135;28;20198;-63
2023/02/14 06:26:37;;;;;;;2.03;1.75;;;19.90;71.60;;;;;;5084157;28;20202;-61
2023/02/14 06:29:04;;;;;;;2.55;1.85;;;19.90;71.60;;;;;;5084293;28;20218;-61
2023/02/14 06:31:31;;;;;;;2.25;2.05;;;20.00;71.60;;;;;;5079641;28;20217;-62
2023/02/14 06:33:57;;;;;;;2.20;2.00;;;20.00;71.70;;;;;;5067051;28;20205;-61
2023/02/14 06:36:25;;;;;;;2.00;1.90;;;20.00;71.70;;;;;;5084591;28;20202;-61
2023/02/14 06:38:52;;;;;;;2.03;1.80;;;20.00;71.70;;;;;;5077908;28;20222;-61
2023/02/14 06:41:20;;;;;;;2.00;1.80;;;20.00;71.70;;;;;;5083456;28;20203;-61
2023/02/14 06:43:48;;;;;;;2.10;1.90;;;20.00;71.60;;;;;;5078653;28;20198;-62
2023/02/14 06:46:15;;;;;;;2.40;2.20;;;19.90;71.50;;;;;;5081179;28;20654;-62
2023/02/14 06:48:42;;;;;;;2.30;2.10;;;19.90;71.50;;;;;;5074307;28;20190;-60
2023/02/14 06:51:09;;;;;;;2.13;1.92;;;20.00;71.60;;;;;;5072548;28;20621;-60
2023/02/14 06:53:36;;;;;;;2.42;2.22;;;19.90;71.50;;;;;;5073758;28;20714;-63
2023/02/14 06:56:03;;;;;;;2.63;1.85;;;19.90;71.60;;;;;;5086616;28;20195;-60
2023/02/14 06:58:32;;;;;;;2.28;1.90;;;19.90;71.60;;;;;;5083913;28;20214;-62
2023/02/14 07:00:59;;;;;;;2.92;2.35;;;19.90;71.60;;;;;;5076408;28;20203;-64
2023/02/14 07:03:26;;;;;;;2.03;1.83;;;19.90;71.60;;;;;;5081412;28;20498;-62
2023/02/14 07:05:54;;;;;;;2.03;1.83;;;20.00;71.70;;;;;;5081452;28;20600;-62
2023/02/14 07:08:21;;;;;;;2.30;2.10;;;20.00;71.70;;;;;;5080611;28;20649;-63
2023/02/14 07:10:47;;;;;;;2.00;1.80;;;20.00;71.70;;;;;;5087735;28;20624;-61
2023/02/14 07:13:14;;;;;;;2.10;1.90;;;20.00;71.70;;;;;;5077469;28;20220;-61
2023/02/14 07:15:42;;;;;;;1.70;1.60;;;20.00;71.70;;;;;;5085902;28;20205;-61
2023/02/14 07:18:10;;;;;;;2.08;1.95;;;20.00;71.70;;;;;;5083740;28;20198;-63
2023/02/14 07:20:37;;;;;;;2.28;2.08;;;20.00;71.80;;;;;;5081426;28;20198;-63
2023/02/14 07:23:03;;;;;;;1.88;1.60;;;20.00;71.70;;;;;;5079804;28;20230;-63
2023/02/14 07:25:30;;;;;;;2.00;1.75;;;20.00;71.70;;;;;;5075201;28;20206;-64
2023/02/14 07:27:57;;;;;;;1.67;1.50;;;20.10;71.80;;;;;;5075196;28;20198;-62
2023/02/14 07:30:24;;;;;;;1.50;1.40;;;20.10;71.80;;;;;;5073312;28;20348;-63
2023/02/14 07:32:52;;;;;;;2.17;1.55;;;20.10;71.80;;;;;;5080446;28;20293;-63
2023/02/14 07:35:19;;;;;;;3.22;1.83;;;20.10;71.80;;;;;;5081955;28;20276;-64
2023/02/14 07:37:45;;;;;;;1.67;1.58;;;20.10;71.80;;;;;;5080928;28;20194;-62
2023/02/14 07:40:13;;;;;;;1.63;1.52;;;20.10;71.80;;;;;;5078739;28;20590;-62
2023/02/14 07:42:39;;;;;;;2.20;1.85;;;20.10;71.80;;;;;;5073894;28;20199;-63
2023/02/14 07:45:07;;;;;;;2.10;1.80;;;20.10;71.80;;;;;;5080145;28;20198;-64
2023/02/14 07:47:33;;;;;;;1.60;1.42;;;20.10;71.80;;;;;;5079483;28;20229;-62
2023/02/14 07:50:01;;;;;;;1.55;1.45;;;20.10;71.80;;;;;;5083869;28;20218;-64
2023/02/14 07:52:28;;;;;;;2.15;1.90;;;20.10;71.80;;;;;;5083568;28;20190;-64
2023/02/14 07:54:55;;;;;;;2.00;1.80;;;20.10;71.80;;;;;;5078158;28;20206;-63
2023/02/14 07:57:21;;;;;;;2.05;1.85;;;20.10;71.80;;;;;;5081683;28;20194;-64
2023/02/14 07:59:48;;;;;;;1.48;1.38;;;20.10;72.60;;;;;;5081316;28;20198;-63
2023/02/14 08:02:15;;;;;;;2.28;2.08;;;20.10;71.80;;;;;;5085671;28;20207;-62
2023/02/14 08:04:41;;;;;;;1.63;1.48;;;20.10;71.80;;;;;;5086078;28;20676;-63
2023/02/14 08:07:09;;;;;;;1.35;1.20;;;20.10;71.80;;;;;;5078220;28;20196;-61
2023/02/14 08:09:36;;;;;;;2.00;1.80;;;20.10;71.80;;;;;;5082849;28;20249;-62
2023/02/14 08:14:47;;;;;;;1.80;1.65;;;20.10;71.90;;;;;;5084560;28;20204;-63
2023/02/14 08:17:14;;;;;;;1.95;1.38;;;20.10;71.90;;;;;;5079353;28;20199;-63
2023/02/14 08:19:41;;;;;;;1.38;1.27;;;20.10;71.90;;;;;;5076397;28;20194;-64
2023/02/14 08:22:09;;;;;;;1.60;1.50;;;20.10;72.00;;;;;;5085168;28;20235;-61
2023/02/14 08:24:36;;;;;;;2.00;1.90;;;20.10;72.00;;;;;;5074113;28;20206;-63
2023/02/14 08:27:03;;;;;;;2.20;1.83;;;20.10;72.00;;;;;;5084756;28;20194;-63
2023/02/14 08:29:29;;;;;;;2.17;1.88;;;20.20;72.10;;;;;;5075780;28;20198;-64
2023/02/14 08:31:59;;;;;;;1.65;1.55;;;20.20;72.10;;;;;;5080426;28;20201;-63
2023/02/14 08:34:25;;;;;;;1.55;1.45;;;20.20;72.90;;;;;;5077403;28;20195;-64
2023/02/14 08:36:52;;;;;;;1.95;1.75;;;20.20;72.10;;;;;;5088913;28;20189;-62
2023/02/14 08:39:20;;;;;;;2.13;1.50;;;20.20;72.10;;;;;;5081985;28;20209;-64
2023/02/14 08:41:47;;;;;;;1.58;1.40;;;20.20;72.10;;;;;;5088024;28;20203;-63
2023/02/14 08:44:15;;;;;;;1.40;1.25;;;20.20;72.10;;;;;;5073859;28;20191;-62
2023/02/14 08:46:42;;;;;;;1.42;1.33;;;20.20;72.10;;;;;;5083226;28;20198;-61
2023/02/14 08:49:09;;;;;;;1.55;1.45;;;20.20;72.10;;;;;;5077210;28;20205;-61
2023/02/14 08:51:36;;;;;;;2.05;1.40;;;20.20;72.10;;;;;;5090275;28;20217;-61
2023/02/14 08:54:03;;;;;;;1.63;1.52;;;20.20;72.10;;;;;;5086522;28;20201;-62
2023/02/14 08:56:32;;;;;;;1.75;1.63;;;20.30;72.20;;;;;;5077112;28;20258;-65
2023/02/14 08:58:58;;;;;;;1.67;1.35;;;20.30;72.20;;;;;;5081066;28;20195;-63
2023/02/14 09:01:26;;;;;;;2.00;1.80;;;20.30;72.30;;;;;;5083275;28;20198;-64
2023/02/14 09:03:53;;;;;;;1.92;1.73;;;20.30;72.20;;;;;;5078815;28;20202;-63
2023/02/14 09:06:19;;;;;;;2.10;1.88;;;20.30;72.20;;;;;;5072139;28;20559;-65
2023/02/14 09:08:46;;;;;;;1.90;1.70;;;20.30;72.20;;;;;;5075885;28;20209;-64
2023/02/14 09:11:17;;;;;;;1.33;1.23;;;20.30;72.20;;;;;;5091404;28;20566;-64
2023/02/14 09:13:46;;;;;;;1.90;1.80;;;20.30;72.20;;;;;;5085283;28;20198;-63
2023/02/14 09:16:16;;;;;;;2.25;1.38;;;20.30;72.30;;;;;;5085908;28;20198;-63
2023/02/14 09:18:43;;;;;;;2.35;1.60;;;20.30;72.30;;;;;;5083949;28;20198;-63
2023/02/14 09:21:11;;;;;;;1.55;1.27;;;20.30;72.30;;;;;;5081066;28;20199;-63
2023/02/14 09:23:38;;;;;;;2.28;1.67;;;20.30;72.20;;;;;;5080156;28;20206;-60
2023/02/14 09:26:06;;;;;;;5.60;1.92;;;20.40;73.10;;;;;;5091829;28;20197;-59
2023/02/14 09:28:34;;;;;;;14.65;2.08;;;20.40;72.90;;;;;;5083181;28;20199;-63
2023/02/14 09:31:09;;;;;;;6.60;3.20;;;20.40;72.90;;;;;;5081494;28;20226;-63
2023/02/14 09:33:35;;;;;;;15.63;2.40;;;20.20;70.30;;;;;;5074757;28;20198;-62
2023/02/14 09:38:47;;;;;;;3.00;2.20;;;20.20;71.80;;;;;;5088494;28;20545;-62
2023/02/14 09:41:34;;;;;;;13.90;2.70;;;20.20;71.70;;;;;;5076651;28;20608;-62
2023/02/14 09:44:04;;;;;;;6.18;2.70;;;20.20;71.60;;;;;;5074856;28;20456;-62
2023/02/14 09:46:45;;;;;;;10.07;2.75;;;20.20;72.10;;;;;;5073613;28;20217;-62
2023/02/14 09:49:15;;;;;;;3.85;1.98;;;20.20;71.80;;;;;;5080153;28;20214;-62
2023/02/14 09:51:47;;;;;;;6.35;2.40;;;20.20;71.70;;;;;;5086578;28;20622;-62
2023/02/14 09:54:17;;;;;;;6.63;2.20;;;20.20;71.70;;;;;;5087187;28;20205;-62
2023/02/14 09:56:53;;;;;;;4.40;2.30;;;20.20;72.40;;;;;;5091273;28;20198;-60
2023/02/14 09:59:27;;;;;;;5.22;3.00;;;20.30;71.80;;;;;;5078449;28;20204;-62
2023/02/14 10:02:00;;;;;;;5.53;2.70;;;20.30;71.70;;;;;;5081686;28;20231;-62
2023/02/14 10:04:34;;;;;;;6.68;2.47;;;20.30;71.80;;;;;;5081700;28;20304;-60
2023/02/14 10:07:10;;;;;;;2.78;2.50;;;20.30;71.80;;;;;;5086889;28;20202;-60
2023/02/14 10:09:48;;;;;;;6.17;2.37;;;20.30;71.80;;;;;;5085770;28;20198;-61
2023/02/14 10:12:22;;;;;;;5.10;2.15;;;20.30;71.80;;;;;;5074937;28;20461;-62
2023/02/14 10:14:51;;;;;;;4.40;2.63;;;20.30;71.80;;;;;;5080057;28;20229;-62
2023/02/14 10:17:26;;;;;;;2.40;2.20;;;20.30;71.80;;;;;;5077998;28;20480;-62
2023/02/14 10:19:57;;;;;;;2.97;2.67;;;20.30;71.80;;;;;;5083644;28;20190;-62
2023/02/14 10:22:34;;;;;;;2.50;2.30;;;20.30;71.80;;;;;;5085681;28;20229;-61
2023/02/14 10:25:06;;;;;;;3.13;2.10;;;20.30;71.80;;;;;;5086755;28;20197;-62
2023/02/14 10:27:38;;;;;;;4.90;2.75;;;20.30;71.80;;;;;;5086905;28;20221;-61
2023/02/14 10:30:15;;;;;;;3.10;2.50;;;20.30;71.80;;;;;;5076456;28;20737;-61
2023/02/14 10:32:46;;;;;;;2.90;2.60;;;20.30;71.80;;;;;;5077155;28;20198;-62
2023/02/14 10:35:21;;;;;;;2.92;2.70;;;20.30;71.80;;;;;;5069479;28;20202;-61
2023/02/14 10:38:00;;;;;;;2.63;1.83;;;20.30;71.80;;;;;;5069504;28;20198;-61
2023/02/14 10:40:44;;;;;;;2.45;2.08;;;20.30;71.90;;;;;;5078919;28;20250;-62
2023/02/14 10:43:18;;;;;;;2.58;2.03;;;20.30;71.90;;;;;;5070016;28;20202;-62
2023/02/14 10:45:53;;;;;;;2.38;2.17;;;20.30;71.90;;;;;;5082187;28;20201;-62
2023/02/14 10:48:29;;;;;;;5.68;2.22;;;20.30;71.80;;;;;;5069765;28;20664;-62
2023/02/14 10:51:03;;;;;;;2.45;2.25;;;20.30;71.90;;;;;;5073396;28;20221;-62
2023/02/14 10:53:39;;;;;;;2.35;2.15;;;20.30;71.90;;;;;;5069164;28;20202;-61
2023/02/14 10:56:09;;;;;;;2.30;2.10;;;20.30;71.90;;;;;;5071702;28;20578;-62
2023/02/14 10:58:38;;;;;;;2.40;2.20;;;20.30;71.90;;;;;;5082283;28;20574;-62
2023/02/14 11:01:09;;;;;;;3.30;1.90;;;20.30;71.90;;;;;;5074247;28;20285;-61
2023/02/14 11:03:40;;;;;;;2.38;2.00;;;20.30;71.90;;;;;;5072809;28;20206;-62
2023/02/14 11:06:07;;;;;;;1.88;1.67;;;20.20;71.80;;;;;;5073574;28;20205;-62
2023/02/14 11:08:36;;;;;;;2.22;1.80;;;20.30;71.90;;;;;;5077237;28;20191;-62
2023/02/14 11:11:13;;;;;;;2.25;2.05;;;20.20;71.80;;;;;;5080442;28;20218;-61
2023/02/14 11:13:40;;;;;;;2.60;1.90;;;20.20;72.60;;;;;;5076953;28;20562;-61
2023/02/14 11:16:10;;;;;;;2.10;1.90;;;20.20;71.80;;;;;;5080562;28;20206;-62
2023/02/14 11:18:40;;;;;;;2.50;2.25;;;20.20;71.90;;;;;;5070100;28;20740;-62
2023/02/14 11:21:09;;;;;;;2.15;1.95;;;20.20;71.90;;;;;;5086713;28;20201;-62
2023/02/14 11:23:39;;;;;;;3.08;2.80;;;20.20;71.80;;;;;;5078941;28;20581;-62
2023/02/14 11:26:10;;;;;;;3.05;1.92;;;20.20;71.80;;;;;;5076273;28;20190;-66
2023/02/14 11:28:38;;;;;;;1.63;1.52;;;20.20;72.20;;;;;;5078683;28;20198;-72
2023/02/14 11:31:05;;;;;;;2.42;1.92;;;20.30;72.10;;;;;;5087243;28;20260;-67
2023/02/14 11:33:38;;;;;;;3.67;1.70;;;20.30;72.10;;;;;;5075829;28;20787;-66
2023/02/14 11:36:11;;;;;;;2.35;2.15;;;20.30;72.10;;;;;;5074786;28;20206;-67
2023/02/14 11:38:39;;;;;;;2.47;2.05;;;20.40;72.40;;;;;;5071155;28;20202;-62
2023/02/14 11:41:09;;;;;;;2.57;2.10;;;20.40;72.40;;;;;;5076776;28;20205;-65
2023/02/14 11:43:38;;;;;;;2.65;2.03;;;20.40;72.30;;;;;;5075428;28;20465;-63
2023/02/14 11:46:12;;;;;;;4.07;2.20;;;20.40;72.40;;;;;;5085930;28;20194;-62
2023/02/14 11:48:55;;;;;;;2.33;2.05;;;20.50;72.50;;;;;;5078701;28;20562;-63
2023/02/14 11:51:28;;;;;;;2.10;2.00;;;20.50;72.50;;;;;;5088496;28;20229;-63
2023/02/14 11:53:59;;;;;;;2.25;1.92;;;20.50;72.60;;;;;;5075114;28;20666;-64
2023/02/14 11:56:47;;;;;;;2.47;1.90;;;20.50;72.60;;;;;;5076184;28;20194;-64
2023/02/14 11:59:29;;;;;;;2.65;2.08;;;20.50;72.70;;;;;;5073698;28;20289;-65
2023/02/14 12:01:59;;;;;;;1.77;1.67;;;20.60;72.90;;;;;;5072584;28;20199;-66
2023/02/14 12:04:33;;;;;;;2.67;2.35;;;20.60;72.90;;;;;;5069405;28;20199;-61
2023/02/14 12:07:22;;;;;;;1.77;1.47;;;20.60;73.00;;;;;;5069477;28;20203;-65
2023/02/14 12:10:06;;;;;;;2.03;1.80;;;20.60;73.10;;;;;;5076425;28;20457;-61
2023/02/14 12:12:35;;;;;;;2.50;2.07;;;20.60;73.00;;;;;;5073850;28;20973;-65
2023/02/14 12:15:35;;;;;;;2.67;2.03;;;20.60;73.00;;;;;;5085038;28;21046;-71
2023/02/14 12:18:22;;;;;;;1.95;1.85;;;20.60;73.10;;;;;;5074337;28;20459;-69
2023/02/14 12:20:55;;;;;;;2.05;1.85;;;20.60;73.10;;;;;;5071309;28;20200;-67
2023/02/14 12:23:27;;;;;;;2.85;1.90;;;20.60;73.10;;;;;;5075084;28;20221;-57
2023/02/14 12:25:58;;;;;;;1.63;1.53;;;20.70;73.30;;;;;;5068811;28;20260;-63
2023/02/14 12:28:30;;;;;;;1.70;1.60;;;20.60;73.20;;;;;;5081489;28;20535;-67
2023/02/14 12:30:57;;;;;;;1.70;1.60;;;20.70;73.40;;;;;;5072436;28;20481;-67
2023/02/14 12:33:24;;;;;;;2.67;2.00;;;20.70;73.50;;;;;;5076826;28;20444;-66
2023/02/14 12:35:59;;;;;;;2.07;1.87;;;20.70;73.40;;;;;;5077274;28;21020;-64
2023/02/14 12:38:38;;;;;;;2.30;1.90;;;20.70;73.40;;;;;;5083870;28;20501;-67
2023/02/14 12:41:20;;;;;;;2.30;1.90;;;20.70;73.40;;;;;;5072732;28;20863;-69
2023/02/14 12:43:51;;;;;;;1.53;1.43;;;20.70;73.50;;;;;;5071079;28;20564;-63
2023/02/14 12:46:31;;;;;;;1.50;1.30;;;20.70;73.50;;;;;;5070867;28;20820;-64
2023/02/14 12:49:15;;;;;;;1.80;1.70;;;20.70;73.50;;;;;;5077391;28;20448;-61
2023/02/14 12:51:49;;;;;;;1.73;1.63;;;20.70;73.70;;;;;;5083456;28;20475;-66
2023/02/14 12:54:36;;;;;;;2.00;1.43;;;20.70;73.70;;;;;;5075615;28;20456;-67
2023/02/14 12:57:08;;;;;;;1.37;1.27;;;20.70;73.80;;;;;;5076830;28;20462;-68
2023/02/14 12:59:44;;;;;;;1.97;1.80;;;20.80;73.80;;;;;;5082347;28;20468;-67
2023/02/14 13:02:51;;;;;;;2.10;1.90;;;20.80;73.80;;;;;;5070330;28;20468;-67
2023/02/14 13:05:24;;;;;;;1.83;1.30;;;20.80;73.80;;;;;;5075315;28;20600;-66
2023/02/14 13:08:03;;;;;;;1.80;1.70;;;20.80;73.80;;;;;;5073501;28;20471;-64
2023/02/14 13:10:44;;;;;;;1.70;1.30;;;20.80;73.80;;;;;;5079058;28;20522;-64
2023/02/14 13:13:22;;;;;;;2.50;1.67;;;20.80;73.80;;;;;;5073120;28;20453;-64
2023/02/14 13:15:57;;;;;;;1.47;1.37;;;20.80;73.80;;;;;;5088217;28;20455;-64
2023/02/14 13:18:35;;;;;;;1.90;1.50;;;20.80;73.80;;;;;;5077641;28;20994;-65
2023/02/14 13:21:06;;;;;;;1.50;1.40;;;20.80;73.80;;;;;;5084472;28;20516;-59
2023/02/14 13:23:38;;;;;;;1.50;1.40;;;20.80;73.80;;;;;;5080922;28;21028;-65